Menfro, Missouri
Current Conditions -  °F | °C
As of 10:15 AM on Thursday 30 Oct 2014 (Local Time) from KSAR Reporting Station
Clear Clear  
Wind Chill: 48°   Ceiling: Unl
Heat Index: 50°   Visibility: 10mi
Dew Point: 41°   Wind: 5mph
Humidity: 71%   Direction: 160°SSE
Pressure: 30.16"   Gusts: NA
Location:  37.7768°N, 89.7232°W
Report Text: KSAR 301515Z AUTO 16004KT 10SM CLR 10/05 A3016 RMK AO2 T00990048
Loading
Personal Weather Stations






























Interactive Weather Map
Tropical Storm Tracking
New forecast layout! Learn more

10-Day Weather Forecast

Advertisements
Track Severe Weather on mobile